ADDS METAR Data INFO
IDs: Format: Raw Decoded Include TAF

Data at: 2301 UTC 16 Jan 2018

KSLN 162253Z 31006KT 10SM CLR M08/M14 A3072 RMK AO2 SLP429 T10831144
KSLN 162153Z 33005KT 10SM CLR M08/M15 A3072 RMK AO2 SLP430 T10831150
KSLN 162053Z 32008KT 10SM CLR M09/M15 A3074 RMK AO2 SLP435 T10891150 56024
KSLN 161953Z 31008KT 10SM FEW035 M10/M16 A3075 RMK AO2 SLP439 T11001156
KSLN 161853Z 31009KT 10SM CLR M12/M17 A3077 RMK AO2 SLP449 T11171167
KSLN 161753Z 33007KT 10SM CLR M13/M18 A3081 RMK AO2 SLP463 T11281178 11128 21172 50003
KSLN 161653Z 34012KT 10SM CLR M14/M19 A3083 RMK AO2 SLP468 T11391189
KSLN 161553Z 34012KT 10SM CLR M15/M20 A3082 RMK AO2 SLP466 T11501200
KSLN 161453Z 32009KT 10SM CLR M16/M21 A3080 RMK AO2 SLP461 T11611206 51011
KSLN 161353Z 31009KT 10SM CLR M17/M21 A3080 RMK AO2 SLP461 T11721211
KSLN 161253Z 33010KT 10SM CLR M17/M21 A3078 RMK AO2 SLP454 T11671211
KSLN 161153Z AUTO 33013KT 10SM CLR M17/M21 A3077 RMK AO2 SLP449 T11671206 11144 21167 51001
KSLN 161053Z AUTO 33012KT 10SM CLR M16/M21 A3077 RMK AO2 SLP448 T11611206
KSLN 160953Z AUTO 33010KT 10SM CLR M16/M20 A3077 RMK AO2 SLP448 T11611200
KSLN 160933Z AUTO 32010KT 10SM FEW022 M16/M19 A3077 RMK AO2 T11611189
KSLN 160923Z AUTO 33009KT 9SM SCT019 BKN028 M16/M19 A3076 RMK AO2 T11561194
KSLN 160853Z AUTO 33011KT 10SM CLR M16/M20 A3077 RMK AO2 SLP445 T11561200 55001
KSLN 160753Z AUTO 32010KT 10SM OVC035 M14/M19 A3076 RMK AO2 SLP443 T11441189
KSLN 160653Z AUTO 31010KT 10SM FEW035 M15/M20 A3077 RMK AO2 SLP445 T11501200
KSLN 160553Z AUTO 33009KT 10SM CLR M15/M19 A3077 RMK AO2 SLP447 T11501194 11122 21156 400281156 51007
KSLN 160453Z 34015KT 10SM CLR M14/M20 A3076 RMK AO2 SLP446 T11441200
KSLN 160353Z 34012KT 10SM CLR M14/M19 A3075 RMK AO2 SLP440 T11391194
KSLN 160253Z 33014KT 10SM CLR M13/M18 A3075 RMK AO2 SLP437 T11331183 51023
KSLN 160153Z 33010KT 10SM CLR M13/M18 A3073 RMK AO2 SLP431 T11331183
KSLN 160053Z 33011KT 10SM CLR M13/M18 A3071 RMK AO2 SLP422 T11281183
KSLN 152353Z 33014KT 10SM CLR M12/M18 A3067 RMK AO2 SLP409 T11221178 11089 21122 53021
KSLN 152253Z 35019KT 10SM FEW035 M11/M17 A3065 RMK AO2 PK WND 36026/2241 SLP400 T11111167
KSLN 152153Z 35019KT 10SM FEW035 M09/M16 A3063 RMK AO2 PK WND 33027/2129 SLP390 T10941161
KSLN 152053Z 34016KT 10SM SCT034 M09/M16 A3061 RMK AO2 PK WND 34027/2018 SLP383 T10941161 55008
KSLN 151953Z 35018KT 10SM FEW031 M09/M16 A3060 RMK AO2 SLP379 T10891156
KSLN 151853Z 36017G24KT 10SM CLR M10/M17 A3062 RMK AO2 PK WND 34026/1826 SLP386 T11001167
KSLN 151753Z 35015KT 10SM CLR M11/M16 A3063 RMK AO2 SLP391 T11111161 11044 21111 50025
KSLN 151653Z 35017KT 10SM CLR M11/M16 A3064 RMK AO2 PK WND 36029/1606 SLP392 T11111156
KSLN 151604Z 35023KT 10SM CLR M11/M14 A3061 RMK AO2 PK WND 35028/1601 T11061144
KSLN 151553Z 36022KT 2 1/2SM HZ FEW024 SCT120 M11/M14 A3060 RMK AO2 PK WND 36030/1523 SLP378 T11061144
KSLN 151540Z 35023KT 3SM HZ FEW024 SCT120 M11/M14 A3059 RMK AO2 PK WND 36030/1523 T11061144
KSLN 151527Z 36024G28KT 1 3/4SM HZ SCT024 SCT120 M11/M14 A3058 RMK AO2 PK WND 36030/1523 T11061139
KSLN 151453Z 36018KT 10SM FEW024 SCT120 M09/M13 A3056 RMK AO2 PK WND 36027/1443 SLP362 T10941133 53037
KSLN 151419Z 01019KT 9SM SCT110 M09/M13 A3054 RMK AO2 PK WND 36026/1359 T10891133
KSLN 151353Z 36019G26KT 7SM OVC100 M09/M13 A3052 RMK AO2 PK WND 35031/1324 SLP350 T10891128
KSLN 151340Z 36021KT 7SM OVC110 M08/M12 A3051 RMK AO2 PK WND 35031/1324 T10831122
KSLN 151333Z 36024G31KT 2 1/2SM BLSN OVC110 M08/M12 A3051 RMK AO2 PK WND 35031/1324 T10831122
KSLN 151253Z 36021G29KT 4SM BLSN BKN100 OVC110 M08/M12 A3048 RMK AO2 PK WND 36030/1220 SLP336 T10781122
KSLN 151153Z AUTO 36023KT 9SM FEW019 FEW025 OVC080 M04/M08 A3045 RMK AO2 PK WND 35027/1152 PRESRR SLP323 60003 70005 T10441078 10028 21044 53040
KSLN 151140Z AUTO 01018KT 10SM FEW019 SCT026 OVC080 M04/M08 A3043 RMK AO2 PK WND 36026/1129 PRESRR T10391078
KSLN 151132Z AUTO 01020G26KT 9SM SCT018 BKN026 OVC075 M04/M07 A3041 RMK AO2 PK WND 36026/1129 T10391072
KSLN 151122Z AUTO 35020KT 10SM FEW020 BKN034 OVC080 M03/M06 A3040 RMK AO2 T10281061